createdAt,value
2023-03-01T00:00:38.719Z,15.47
2023-03-01T00:04:51.212Z,15.30
2023-03-01T00:09:03.939Z,15.54
2023-03-01T00:13:16.877Z,15.62
2023-03-01T00:17:31.387Z,15.57
2023-03-01T00:21:44.055Z,15.55
2023-03-01T00:25:58.953Z,15.39
2023-03-01T00:30:12.162Z,15.53
2023-03-01T00:34:24.572Z,15.43
2023-03-01T00:38:40.521Z,15.52
2023-03-01T00:42:53.139Z,15.59
2023-03-01T00:47:05.566Z,15.62
2023-03-01T00:51:19.991Z,15.53
2023-03-01T00:55:32.522Z,15.45
2023-03-01T00:59:45.655Z,15.24
2023-03-01T01:04:01.228Z,15.22
2023-03-01T01:08:13.764Z,15.17
2023-03-01T01:12:26.205Z,15.21
2023-03-01T01:16:38.631Z,15.22
2023-03-01T01:20:51.027Z,15.21
2023-03-01T01:25:03.708Z,15.14
2023-03-01T01:29:16.394Z,15.04
2023-03-01T01:33:29.226Z,15.20
2023-03-01T01:37:41.607Z,15.26
2023-03-01T01:41:54.061Z,15.14
2023-03-01T01:46:19.907Z,14.87
2023-03-01T01:50:39.047Z,15.24
2023-03-01T01:54:59.220Z,15.29
2023-03-01T01:59:12.473Z,15.17
2023-03-01T02:03:30.192Z,14.98
2023-03-01T02:07:43.782Z,15.01
2023-03-01T02:11:56.390Z,14.97
2023-03-01T02:16:15.599Z,15.08
2023-03-01T02:20:32.814Z,14.99
2023-03-01T02:24:50.845Z,15.15
2023-03-01T02:29:03.266Z,14.99
2023-03-01T02:33:16.671Z,15.24
2023-03-01T02:37:32.142Z,15.11
2023-03-01T02:41:49.803Z,15.17
2023-03-01T02:46:09.001Z,15.12
2023-03-01T02:50:30.633Z,15.11
2023-03-01T02:55:14.310Z,15.23
2023-03-01T02:59:32.981Z,15.22
2023-03-01T03:03:45.997Z,15.19
2023-03-01T03:08:01.394Z,14.96
2023-03-01T03:12:16.112Z,15.12
2023-03-01T03:16:28.971Z,14.88
2023-03-01T03:20:43.192Z,14.98
2023-03-01T03:24:55.543Z,14.98
2023-03-01T03:29:09.127Z,15.07
2023-03-01T03:33:21.550Z,15.14
2023-03-01T03:37:52.137Z,15.21
2023-03-01T03:42:04.472Z,14.97
2023-03-01T03:46:18.255Z,15.01
2023-03-01T03:50:30.740Z,14.99
2023-03-01T03:54:43.102Z,14.80
2023-03-01T03:58:55.509Z,15.05
2023-03-01T04:03:08.204Z,15.01
2023-03-01T04:07:20.668Z,14.94
2023-03-01T04:11:34.025Z,14.67
2023-03-01T04:15:46.674Z,14.79
2023-03-01T04:20:00.199Z,14.72
2023-03-01T04:24:13.689Z,14.74
2023-03-01T04:28:28.536Z,14.91
2023-03-01T04:32:41.031Z,14.69
2023-03-01T04:36:54.566Z,14.98
2023-03-01T04:41:14.609Z,15.02
2023-03-01T04:45:27.182Z,14.96
2023-03-01T04:49:40.012Z,14.83
2023-03-01T04:53:52.452Z,14.75
2023-03-01T04:58:05.845Z,14.67
2023-03-01T05:02:18.228Z,14.78
2023-03-01T05:06:30.884Z,14.72
2023-03-01T05:10:43.372Z,14.77
2023-03-01T05:14:55.684Z,14.65
2023-03-01T05:19:16.397Z,14.75
2023-03-01T05:23:30.241Z,14.89
2023-03-01T05:27:42.826Z,14.88
2023-03-01T05:32:16.979Z,14.91
2023-03-01T05:36:29.834Z,15.04
2023-03-01T05:40:47.149Z,14.94
2023-03-01T05:44:59.504Z,15.04
2023-03-01T05:49:14.615Z,14.99
2023-03-01T05:53:27.801Z,14.98
2023-03-01T05:57:40.179Z,15.04
2023-03-01T06:01:52.554Z,15.15
2023-03-01T06:06:05.103Z,15.26
2023-03-01T06:10:18.844Z,15.36
2023-03-01T06:14:31.421Z,15.46
2023-03-01T06:18:44.243Z,15.52
2023-03-01T06:22:57.462Z,15.69
2023-03-01T06:27:10.171Z,15.67
2023-03-01T06:31:23.575Z,15.69
2023-03-01T06:35:36.350Z,15.82
2023-03-01T06:39:48.894Z,15.84
2023-03-01T06:44:01.406Z,15.79
2023-03-01T06:48:13.790Z,15.81
2023-03-01T06:52:26.312Z,15.88
2023-03-01T06:56:38.706Z,16.06
2023-03-01T07:00:51.215Z,15.97
2023-03-01T07:05:03.816Z,16.40
2023-03-01T07:09:20.960Z,16.17
2023-03-01T07:13:33.587Z,16.10
2023-03-01T07:17:48.848Z,16.35
2023-03-01T07:22:01.274Z,16.62
2023-03-01T07:26:13.700Z,16.90
2023-03-01T07:30:29.794Z,17.16
2023-03-01T07:34:42.364Z,16.83
2023-03-01T07:38:56.906Z,17.15
2023-03-01T07:43:09.285Z,17.35
2023-03-01T07:47:21.728Z,16.74
2023-03-01T07:51:34.055Z,17.00
2023-03-01T07:55:46.338Z,17.25
2023-03-01T07:59:58.737Z,17.37
2023-03-01T08:04:11.811Z,17.18
2023-03-01T08:08:24.223Z,17.38
2023-03-01T08:12:36.699Z,17.36
2023-03-01T08:16:51.383Z,17.55
2023-03-01T08:21:08.123Z,17.81
2023-03-01T08:25:20.534Z,17.94
2023-03-01T08:29:34.109Z,18.17
2023-03-01T08:33:56.402Z,18.60
2023-03-01T08:38:08.868Z,18.52
2023-03-01T08:42:21.246Z,18.57
2023-03-01T08:46:39.493Z,18.92
2023-03-01T08:50:52.400Z,18.30
2023-03-01T08:55:05.138Z,18.14
2023-03-01T08:59:18.834Z,18.81
2023-03-01T09:03:31.376Z,18.16
2023-03-01T09:07:44.081Z,18.44
2023-03-01T09:11:57.046Z,19.03
2023-03-01T09:16:10.229Z,19.37
2023-03-01T09:20:23.452Z,19.93
2023-03-01T09:24:35.820Z,19.65
2023-03-01T09:28:52.085Z,19.86
2023-03-01T09:33:04.641Z,20.54
2023-03-01T09:37:16.958Z,21.00
2023-03-01T09:41:43.991Z,20.60
2023-03-01T09:46:00.199Z,20.07
2023-03-01T09:50:20.853Z,20.42
2023-03-01T09:54:33.436Z,20.10
2023-03-01T09:59:23.358Z,19.59
2023-03-01T10:03:46.627Z,19.88
2023-03-01T10:08:05.212Z,19.95
2023-03-01T10:12:21.964Z,19.79
2023-03-01T10:16:55.837Z,20.76
2023-03-01T10:21:21.690Z,20.95
2023-03-01T10:25:42.451Z,21.37
2023-03-01T10:30:27.828Z,20.07
2023-03-01T10:34:43.130Z,20.19
2023-03-01T10:38:58.967Z,19.62
2023-03-01T10:43:14.787Z,20.26
2023-03-01T10:47:29.175Z,20.74
2023-03-01T10:51:43.835Z,20.95
2023-03-01T10:56:16.739Z,21.10
2023-03-01T11:00:29.221Z,20.97
2023-03-01T11:04:57.299Z,21.21
2023-03-01T11:09:28.580Z,22.02
2023-03-01T11:14:03.171Z,22.24
2023-03-01T11:18:44.339Z,23.27
2023-03-01T11:23:14.377Z,21.76
2023-03-01T11:27:30.299Z,22.07
2023-03-01T11:31:56.743Z,22.23
2023-03-01T11:36:32.596Z,22.88
2023-03-01T11:40:50.066Z,22.75
2023-03-01T11:45:07.888Z,22.05
2023-03-01T11:49:41.609Z,22.22
2023-03-01T11:54:20.215Z,21.42
2023-03-01T11:58:55.444Z,21.37
2023-03-01T12:03:22.729Z,21.22
2023-03-01T12:07:55.509Z,22.01
2023-03-01T12:12:44.656Z,21.95
2023-03-01T12:17:34.435Z,21.85
2023-03-01T12:22:08.122Z,22.31
2023-03-01T12:26:20.580Z,21.75
2023-03-01T12:30:44.719Z,21.38
2023-03-01T12:35:15.730Z,21.24
2023-03-01T12:39:42.381Z,21.08
2023-03-01T12:44:13.579Z,21.02
2023-03-01T12:48:31.606Z,20.66
2023-03-01T12:52:59.689Z,20.30
2023-03-01T12:57:38.355Z,18.68
2023-03-01T13:02:16.933Z,18.07
2023-03-01T13:06:43.294Z,17.66
2023-03-01T13:11:07.116Z,17.67
2023-03-01T13:15:25.596Z,17.48
2023-03-01T13:19:38.125Z,17.57
2023-03-01T13:23:50.554Z,17.61
2023-03-01T13:28:39.467Z,17.64
2023-03-01T13:32:52.133Z,17.48
2023-03-01T13:37:20.950Z,17.80
2023-03-01T13:41:48.009Z,17.26
2023-03-01T13:46:01.322Z,17.65
2023-03-01T13:50:40.647Z,17.65
2023-03-01T13:54:55.073Z,17.55
2023-03-01T13:59:16.164Z,18.02
2023-03-01T14:03:31.029Z,17.38
2023-03-01T14:07:43.415Z,17.43
2023-03-01T14:12:07.690Z,17.46
2023-03-01T14:16:41.937Z,17.48
2023-03-01T14:20:54.376Z,17.67
2023-03-01T14:25:21.774Z,17.65
2023-03-01T14:29:39.659Z,17.70
2023-03-01T14:34:00.729Z,17.69
2023-03-01T14:38:24.935Z,17.95
2023-03-01T14:42:38.154Z,17.90
2023-03-01T14:46:58.448Z,17.40
2023-03-01T14:51:13.613Z,17.53
2023-03-01T14:55:43.030Z,17.16
2023-03-01T15:00:04.347Z,17.10
2023-03-01T15:04:17.272Z,17.21
2023-03-01T15:08:34.284Z,17.24
2023-03-01T15:12:46.645Z,17.19
2023-03-01T15:16:59.253Z,17.11
2023-03-01T15:21:31.345Z,16.76
2023-03-01T15:25:46.275Z,16.72
2023-03-01T15:30:03.507Z,16.69
2023-03-01T15:34:33.382Z,16.65
2023-03-01T15:38:59.189Z,16.58
2023-03-01T15:43:43.591Z,16.42
2023-03-01T15:48:21.589Z,16.37
2023-03-01T15:52:42.085Z,16.35
2023-03-01T15:56:54.785Z,16.35
2023-03-01T16:01:14.153Z,16.31
2023-03-01T16:05:30.128Z,16.15
2023-03-01T16:09:43.500Z,16.08
2023-03-01T16:13:56.115Z,16.01
2023-03-01T16:18:11.479Z,15.88
2023-03-01T16:22:26.424Z,15.89
2023-03-01T16:26:39.415Z,15.84
2023-03-01T16:30:52.226Z,15.76
2023-03-01T16:35:05.171Z,15.61
2023-03-01T16:39:18.005Z,15.57
2023-03-01T16:43:31.561Z,15.58
2023-03-01T16:47:44.058Z,15.59
2023-03-01T16:51:56.465Z,15.64
2023-03-01T16:56:11.423Z,15.58
2023-03-01T17:00:24.237Z,15.56
2023-03-01T17:04:37.000Z,15.48
2023-03-01T17:08:49.542Z,15.42
2023-03-01T17:13:02.025Z,15.48
2023-03-01T17:17:15.608Z,15.41
2023-03-01T17:21:27.944Z,15.30
2023-03-01T17:25:47.067Z,15.17
2023-03-01T17:29:59.382Z,15.24
2023-03-01T17:34:11.899Z,15.21
2023-03-01T17:38:24.445Z,15.01
2023-03-01T17:42:36.901Z,15.04
2023-03-01T17:46:49.267Z,14.90
2023-03-01T17:51:07.379Z,15.05
2023-03-01T17:55:19.916Z,15.02
2023-03-01T17:59:33.775Z,14.97
2023-03-01T18:03:47.703Z,14.96
2023-03-01T18:08:00.329Z,14.84
2023-03-01T18:12:12.899Z,14.75
2023-03-01T18:16:25.357Z,14.68
2023-03-01T18:20:37.746Z,14.67
2023-03-01T18:24:53.148Z,14.68
2023-03-01T18:29:05.713Z,14.78
2023-03-01T18:33:17.949Z,14.76
2023-03-01T18:37:30.323Z,14.72
2023-03-01T18:41:42.684Z,14.62
2023-03-01T18:45:59.489Z,14.65
2023-03-01T18:50:12.334Z,14.67
2023-03-01T18:54:24.716Z,14.47
2023-03-01T19:02:51.321Z,14.39
2023-03-01T19:07:04.263Z,14.23
2023-03-01T19:11:19.643Z,14.11
2023-03-01T19:15:32.094Z,14.16
2023-03-01T19:19:45.937Z,14.07
2023-03-01T19:23:59.760Z,14.00
2023-03-01T19:28:12.188Z,13.72
2023-03-01T19:32:24.575Z,13.47
2023-03-01T19:36:37.173Z,13.37
2023-03-01T19:40:49.717Z,13.38
2023-03-01T19:45:02.216Z,13.24
2023-03-01T19:49:14.631Z,13.28
2023-03-01T19:53:27.315Z,13.22
2023-03-01T19:57:42.065Z,12.95
2023-03-01T20:01:56.247Z,12.47
2023-03-01T20:06:13.290Z,12.47
2023-03-01T20:10:26.865Z,12.16
2023-03-01T20:14:39.776Z,11.95
2023-03-01T20:18:54.571Z,11.95
2023-03-01T20:23:07.370Z,11.98
2023-03-01T20:27:19.870Z,12.32
2023-03-01T20:31:32.399Z,12.25
2023-03-01T20:35:44.888Z,12.43
2023-03-01T20:39:57.341Z,12.08
2023-03-01T20:44:10.044Z,12.37
2023-03-01T20:48:22.804Z,12.35
2023-03-01T20:52:45.837Z,11.98
2023-03-01T20:56:59.685Z,12.09
2023-03-01T21:01:18.262Z,11.98
2023-03-01T21:05:31.748Z,11.88
2023-03-01T21:09:45.099Z,12.05
2023-03-01T21:13:57.636Z,11.71
2023-03-01T21:18:10.034Z,11.62
2023-03-01T21:22:22.511Z,11.80
2023-03-01T21:26:35.074Z,11.82
2023-03-01T21:30:47.577Z,12.03
2023-03-01T21:35:00.304Z,11.89
2023-03-01T21:39:15.399Z,11.51
2023-03-01T21:43:28.136Z,11.75
2023-03-01T21:47:40.748Z,11.65
2023-03-01T21:51:53.128Z,11.42
2023-03-01T21:56:06.612Z,11.49
2023-03-01T22:00:23.580Z,11.64
2023-03-01T22:04:36.005Z,11.77
2023-03-01T22:08:52.186Z,11.95
2023-03-01T22:13:04.594Z,11.79
2023-03-01T22:17:16.959Z,11.79
2023-03-01T22:21:29.361Z,11.60
2023-03-01T22:25:42.655Z,11.36
2023-03-01T22:29:54.917Z,11.31
2023-03-01T22:34:07.761Z,11.47
2023-03-01T22:38:20.182Z,11.39
2023-03-01T22:42:32.794Z,11.33
2023-03-01T22:46:46.980Z,11.30
2023-03-01T22:50:59.300Z,11.37
2023-03-01T22:55:11.995Z,11.59
2023-03-01T22:59:24.642Z,11.47
2023-03-01T23:03:37.018Z,11.34
2023-03-01T23:07:49.486Z,11.68
2023-03-01T23:12:06.887Z,11.67
2023-03-01T23:16:20.292Z,11.62
2023-03-01T23:20:36.487Z,11.73
2023-03-01T23:24:49.178Z,11.73
2023-03-01T23:29:01.607Z,11.65
2023-03-01T23:33:14.092Z,11.52
2023-03-01T23:37:31.142Z,11.45
2023-03-01T23:41:43.618Z,11.48
2023-03-01T23:45:56.117Z,11.64
2023-03-01T23:50:09.778Z,11.57
2023-03-01T23:54:25.170Z,11.40
2023-03-01T23:58:37.666Z,11.28
